createdAt,value
2023-03-26T00:00:54.354Z,99344.88
2023-03-26T00:03:57.999Z,99325.75
2023-03-26T00:07:00.674Z,99357.25
2023-03-26T00:10:03.779Z,99331.38
2023-03-26T00:13:07.378Z,99346.16
2023-03-26T00:16:12.271Z,99352.97
2023-03-26T00:19:14.362Z,99310.91
2023-03-26T00:22:17.183Z,99333.75
2023-03-26T00:25:20.562Z,99321.13
2023-03-26T00:28:23.329Z,99320.47
2023-03-26T00:31:27.319Z,99303.66
2023-03-26T00:34:32.073Z,99335.56
2023-03-26T00:37:34.088Z,99317.84
2023-03-26T00:40:36.896Z,99358.69
2023-03-26T00:43:39.354Z,99299.03
2023-03-26T00:46:42.886Z,99317.00
2023-03-26T00:49:46.971Z,99310.59
2023-03-26T00:52:48.944Z,99317.66
2023-03-26T00:55:50.912Z,99352.72
2023-03-26T00:58:52.996Z,99326.34
2023-03-26T01:01:58.511Z,99359.91
2023-03-26T01:05:04.061Z,99302.00
2023-03-26T01:08:18.404Z,99276.44
2023-03-26T01:11:23.952Z,99275.44
2023-03-26T01:14:29.084Z,99329.69
2023-03-26T01:17:38.086Z,99308.44
2023-03-26T01:20:46.767Z,99323.16
2023-03-26T01:23:57.786Z,99288.19
2023-03-26T01:27:14.424Z,99287.06
2023-03-26T01:30:24.533Z,99318.38
2023-03-26T01:33:36.722Z,99326.22
2023-03-26T01:36:46.918Z,99285.81
2023-03-26T01:39:57.116Z,99299.91
2023-03-26T01:43:08.882Z,99295.88
2023-03-26T01:46:14.311Z,99331.53
2023-03-26T01:49:18.618Z,99324.97
2023-03-26T01:52:25.326Z,99323.84
2023-03-26T01:55:38.334Z,99353.69
2023-03-26T01:58:55.386Z,99328.97
2023-03-26T02:02:04.941Z,99353.94
2023-03-26T02:05:15.948Z,99379.75
2023-03-26T02:08:23.653Z,99308.81
2023-03-26T02:11:35.550Z,99380.56
2023-03-26T02:14:38.066Z,99352.94
2023-03-26T02:17:40.611Z,99317.47
2023-03-26T02:20:42.718Z,99359.25
2023-03-26T02:23:48.788Z,99327.78
2023-03-26T02:26:52.380Z,99385.41
2023-03-26T02:29:54.368Z,99335.47
2023-03-26T02:32:59.543Z,99323.69
2023-03-26T02:36:04.412Z,99381.44
2023-03-26T02:39:06.422Z,99351.25
2023-03-26T02:42:09.900Z,99360.53
2023-03-26T02:45:11.847Z,99304.06
2023-03-26T02:48:15.193Z,99281.91
2023-03-26T02:51:18.372Z,99355.97
2023-03-26T02:54:20.577Z,99275.81
2023-03-26T02:57:24.228Z,99317.09
2023-03-26T03:00:26.424Z,99291.47
2023-03-26T03:03:30.237Z,99285.69
2023-03-26T03:06:32.577Z,99294.38
2023-03-26T03:09:34.881Z,99308.19
2023-03-26T03:12:38.244Z,99353.59
2023-03-26T03:15:40.181Z,99315.28
2023-03-26T03:18:42.158Z,99326.50
2023-03-26T03:21:44.174Z,99327.41
2023-03-26T03:24:46.161Z,99309.13
2023-03-26T03:27:50.419Z,99306.53
2023-03-26T03:30:57.733Z,99368.38
2023-03-26T03:33:59.694Z,99361.03
2023-03-26T03:37:01.651Z,99301.34
2023-03-26T03:40:07.822Z,99305.75
2023-03-26T03:43:11.270Z,99308.06
2023-03-26T03:46:13.523Z,99345.34
2023-03-26T03:49:15.730Z,99326.34
2023-03-26T03:52:18.312Z,99359.81
2023-03-26T03:55:20.243Z,99347.69
2023-03-26T03:58:25.060Z,99369.25
2023-03-26T04:01:27.067Z,99311.34
2023-03-26T04:04:29.078Z,99346.59
2023-03-26T04:07:32.374Z,99334.56
2023-03-26T04:10:34.356Z,99344.63
2023-03-26T04:13:37.772Z,99355.66
2023-03-26T04:16:39.728Z,99371.72
2023-03-26T04:19:44.167Z,99398.75
2023-03-26T04:22:46.846Z,99372.66
2023-03-26T04:25:53.877Z,99320.94
2023-03-26T04:29:01.092Z,99320.16
2023-03-26T04:32:06.844Z,99335.53
2023-03-26T04:35:13.163Z,99324.28
2023-03-26T04:38:18.454Z,99385.38
2023-03-26T04:41:22.375Z,99351.78
2023-03-26T04:44:25.742Z,99345.59
2023-03-26T04:47:29.179Z,99333.13
2023-03-26T04:50:31.197Z,99328.59
2023-03-26T04:53:34.331Z,99380.16
2023-03-26T04:56:47.565Z,99350.00
2023-03-26T04:59:51.547Z,99397.31
2023-03-26T05:02:58.306Z,99366.09
2023-03-26T05:06:01.588Z,99312.94
2023-03-26T05:09:04.048Z,99313.31
2023-03-26T05:12:06.325Z,99320.91
2023-03-26T05:15:12.156Z,99317.19
2023-03-26T05:18:14.414Z,99334.88
2023-03-26T05:21:16.399Z,99329.31
2023-03-26T05:24:19.787Z,99363.41
2023-03-26T05:27:21.683Z,99324.03
2023-03-26T05:30:25.587Z,99335.50
2023-03-26T05:33:27.590Z,99351.81
2023-03-26T05:36:30.639Z,99365.56
2023-03-26T05:39:32.677Z,99362.06
2023-03-26T05:42:34.618Z,99385.97
2023-03-26T05:45:37.995Z,99351.22
2023-03-26T05:48:40.431Z,99333.59
2023-03-26T05:51:42.510Z,99313.75
2023-03-26T05:54:44.585Z,99352.34
2023-03-26T05:57:46.555Z,99314.59
2023-03-26T06:00:58.535Z,99374.53
2023-03-26T06:04:03.004Z,99371.88
2023-03-26T06:07:05.091Z,99315.44
2023-03-26T06:10:08.173Z,99320.91
2023-03-26T06:13:10.477Z,99305.66
2023-03-26T06:16:26.302Z,99359.59
2023-03-26T06:19:30.254Z,99301.31
2023-03-26T06:22:32.218Z,99310.09
2023-03-26T06:25:34.190Z,99308.22
2023-03-26T06:28:36.717Z,99319.00
2023-03-26T06:31:40.684Z,99308.53
2023-03-26T06:34:42.711Z,99304.81
2023-03-26T06:37:44.821Z,99359.13
2023-03-26T06:40:46.796Z,99310.88
2023-03-26T06:43:48.742Z,99313.78
2023-03-26T06:46:52.160Z,99315.34
2023-03-26T06:49:54.135Z,99329.66
2023-03-26T06:52:56.640Z,99307.56
2023-03-26T06:55:58.565Z,99375.19
2023-03-26T06:59:00.749Z,99333.94
2023-03-26T07:02:04.385Z,99305.88
2023-03-26T07:05:07.034Z,99302.13
2023-03-26T07:08:09.062Z,99364.44
2023-03-26T07:11:11.275Z,99328.47
2023-03-26T07:14:17.734Z,99329.81
2023-03-26T07:17:21.427Z,99336.00
2023-03-26T07:20:24.333Z,99322.69
2023-03-26T07:23:27.037Z,99340.34
2023-03-26T07:26:38.690Z,99292.97
2023-03-26T07:30:08.617Z,99305.09
2023-03-26T07:33:18.906Z,99329.81
2023-03-26T07:36:28.057Z,99300.44
2023-03-26T07:39:43.104Z,99315.28
2023-03-26T07:42:56.430Z,99345.31
2023-03-26T07:45:59.141Z,99365.03
2023-03-26T07:49:04.699Z,99335.38
2023-03-26T07:52:06.767Z,99355.88
2023-03-26T07:55:14.041Z,99316.06
2023-03-26T07:58:31.453Z,99304.25
2023-03-26T08:01:53.795Z,99291.34
2023-03-26T08:05:10.674Z,99243.25
2023-03-26T08:08:20.721Z,99303.66
2023-03-26T08:11:34.354Z,99241.22
2023-03-26T08:14:50.023Z,99265.47
2023-03-26T08:17:58.016Z,99263.00
2023-03-26T08:21:08.190Z,99274.81
2023-03-26T08:24:23.026Z,99255.50
2023-03-26T08:27:34.618Z,99288.59
2023-03-26T08:30:37.058Z,99365.06
2023-03-26T08:33:40.928Z,99283.88
2023-03-26T08:36:44.655Z,99356.34
2023-03-26T08:39:46.702Z,99329.16
2023-03-26T08:43:16.886Z,99359.72
2023-03-26T08:47:01.859Z,99308.97
2023-03-26T08:50:35.291Z,99294.25
2023-03-26T08:54:14.753Z,99331.22
2023-03-26T08:57:43.155Z,99302.09
2023-03-26T09:01:13.766Z,99325.13
2023-03-26T09:04:54.488Z,99251.03
2023-03-26T09:08:30.006Z,99263.78
2023-03-26T09:12:02.054Z,99322.50
2023-03-26T09:15:48.692Z,99271.75
2023-03-26T09:19:26.057Z,99253.78
2023-03-26T09:22:57.890Z,99257.84
2023-03-26T09:26:25.481Z,99266.53
2023-03-26T09:30:12.503Z,99262.59
2023-03-26T09:33:54.322Z,99310.66
2023-03-26T09:37:06.790Z,99314.31
2023-03-26T09:40:16.591Z,99252.22
2023-03-26T09:43:49.805Z,99284.66
2023-03-26T09:47:22.599Z,99270.06
2023-03-26T09:50:40.314Z,99246.13
2023-03-26T09:53:57.010Z,99269.53
2023-03-26T09:57:10.569Z,99248.03
2023-03-26T10:00:28.557Z,99232.59
2023-03-26T10:03:41.412Z,99200.56
2023-03-26T10:06:54.590Z,99190.53
2023-03-26T10:10:02.406Z,99181.81
2023-03-26T10:13:16.393Z,99190.34
2023-03-26T10:16:28.569Z,99163.91
2023-03-26T10:19:43.692Z,99183.22
2023-03-26T10:22:56.905Z,99196.59
2023-03-26T10:26:09.801Z,99202.09
2023-03-26T10:29:44.162Z,99219.66
2023-03-26T10:32:54.524Z,99162.69
2023-03-26T10:36:15.501Z,99165.41
2023-03-26T10:39:48.743Z,99180.78
2023-03-26T10:43:21.338Z,99195.66
2023-03-26T10:46:40.295Z,99211.25
2023-03-26T10:50:03.177Z,99148.59
2023-03-26T10:53:12.709Z,99213.06
2023-03-26T10:56:22.031Z,99149.94
2023-03-26T10:59:27.760Z,99185.50
2023-03-26T11:02:34.095Z,99138.97
2023-03-26T11:05:49.399Z,99159.75
2023-03-26T11:09:02.449Z,99168.31
2023-03-26T11:12:25.593Z,99114.41
2023-03-26T11:15:38.513Z,99113.47
2023-03-26T11:18:48.015Z,99100.75
2023-03-26T11:21:57.654Z,99111.69
2023-03-26T11:25:34.347Z,99121.50
2023-03-26T11:29:03.215Z,99092.19
2023-03-26T11:32:11.137Z,99131.50
2023-03-26T11:35:39.758Z,99093.13
2023-03-26T11:38:47.009Z,99078.13
2023-03-26T11:41:54.794Z,99056.97
2023-03-26T11:45:04.101Z,99103.84
2023-03-26T11:48:10.945Z,99028.22
2023-03-26T11:51:20.781Z,99040.75
2023-03-26T11:54:23.005Z,99054.09
2023-03-26T11:57:33.460Z,99024.69
2023-03-26T12:00:36.179Z,99069.53
2023-03-26T12:03:40.810Z,99023.47
2023-03-26T12:06:52.813Z,99032.13
2023-03-26T12:09:58.214Z,99019.41
2023-03-26T12:13:30.575Z,99037.41
2023-03-26T12:16:32.796Z,98984.66
2023-03-26T12:19:39.650Z,98970.22
2023-03-26T12:22:47.879Z,98963.06
2023-03-26T12:26:09.846Z,98968.00
2023-03-26T12:29:15.119Z,98948.44
2023-03-26T12:32:17.268Z,98971.94
2023-03-26T12:35:26.882Z,99006.22
2023-03-26T12:38:35.971Z,98947.41
2023-03-26T12:43:40.206Z,98937.94
2023-03-26T12:45:16.906Z,98918.28
2023-03-26T12:48:19.740Z,98922.34
2023-03-26T12:51:40.608Z,98917.81
2023-03-26T12:54:51.194Z,98936.28
2023-03-26T12:58:13.321Z,98934.03
2023-03-26T13:01:26.822Z,98929.25
2023-03-26T13:04:55.011Z,98970.69
2023-03-26T13:08:26.360Z,98941.28
2023-03-26T13:11:38.306Z,98932.00
2023-03-26T13:15:03.560Z,98937.03
2023-03-26T13:18:22.471Z,98917.63
2023-03-26T13:21:37.190Z,98908.84
2023-03-26T13:24:54.474Z,98911.88
2023-03-26T13:28:10.975Z,98909.03
2023-03-26T13:31:19.397Z,98907.94
2023-03-26T13:34:33.884Z,98898.84
2023-03-26T13:37:42.746Z,98887.78
2023-03-26T13:40:57.844Z,98871.66
2023-03-26T13:44:08.076Z,98868.63
2023-03-26T13:47:16.817Z,98879.56
2023-03-26T13:50:25.515Z,98870.81
2023-03-26T13:53:35.426Z,98874.81
2023-03-26T13:56:43.356Z,98873.00
2023-03-26T13:59:51.302Z,98862.75
2023-03-26T14:02:58.508Z,98827.25
2023-03-26T14:06:08.817Z,98844.06
2023-03-26T14:09:17.899Z,98797.16
2023-03-26T14:12:31.857Z,98804.06
2023-03-26T14:15:41.549Z,98832.09
2023-03-26T14:18:49.586Z,98801.00
2023-03-26T14:22:11.231Z,98829.81
2023-03-26T14:25:32.830Z,98821.41
2023-03-26T14:29:10.307Z,98831.16
2023-03-26T14:32:24.901Z,98827.44
2023-03-26T14:35:37.094Z,98821.63
2023-03-26T14:39:05.454Z,98816.16
2023-03-26T14:42:18.194Z,98777.16
2023-03-26T14:46:00.079Z,98732.31
2023-03-26T14:49:46.592Z,98745.31
2023-03-26T14:52:51.602Z,98742.91
2023-03-26T14:56:34.902Z,98741.44
2023-03-26T15:00:07.590Z,98793.34
2023-03-26T15:03:54.824Z,98724.22
2023-03-26T15:07:39.054Z,98708.50
2023-03-26T15:11:17.973Z,98709.78
2023-03-26T15:14:56.266Z,98732.94
2023-03-26T15:18:36.402Z,98758.69
2023-03-26T15:22:17.276Z,98745.31
2023-03-26T15:25:42.040Z,98733.41
2023-03-26T15:29:05.904Z,98703.69
2023-03-26T15:32:35.161Z,98730.34
2023-03-26T15:36:01.387Z,98676.22
2023-03-26T15:40:31.407Z,98734.00
2023-03-26T15:44:24.390Z,98671.25
2023-03-26T15:48:12.071Z,98675.53
2023-03-26T15:51:31.635Z,98683.81
2023-03-26T15:55:00.886Z,98695.50
2023-03-26T15:58:13.699Z,98648.88
2023-03-26T16:01:38.876Z,98679.63
2023-03-26T16:04:50.360Z,98710.53
2023-03-26T16:08:07.332Z,98696.00
2023-03-26T16:11:12.861Z,98626.41
2023-03-26T16:14:21.409Z,98611.88
2023-03-26T16:17:25.384Z,98642.66
2023-03-26T16:20:33.721Z,98668.66
2023-03-26T16:23:54.207Z,98663.13
2023-03-26T16:27:23.944Z,98670.31
2023-03-26T16:30:30.399Z,98662.59
2023-03-26T16:33:37.951Z,98608.97
2023-03-26T16:36:44.351Z,98648.28
2023-03-26T16:39:47.710Z,98649.91
2023-03-26T16:42:55.567Z,98657.09
2023-03-26T16:46:08.436Z,98655.72
2023-03-26T16:49:22.681Z,98611.13
2023-03-26T16:52:46.764Z,98606.44
2023-03-26T16:55:57.203Z,98607.09
2023-03-26T16:59:08.036Z,98667.28
2023-03-26T17:02:21.871Z,98616.13
2023-03-26T17:05:35.489Z,98621.22
2023-03-26T17:08:49.800Z,98659.31
2023-03-26T17:12:03.862Z,98670.22
2023-03-26T17:15:27.019Z,98657.72
2023-03-26T17:18:44.183Z,98670.00
2023-03-26T17:21:56.734Z,98617.13
2023-03-26T17:25:11.600Z,98643.94
2023-03-26T17:28:28.270Z,98615.91
2023-03-26T17:31:41.848Z,98617.53
2023-03-26T17:34:59.878Z,98614.25
2023-03-26T17:38:03.491Z,98586.56
2023-03-26T17:41:15.878Z,98604.84
2023-03-26T17:44:46.706Z,98613.00
2023-03-26T17:47:54.514Z,98605.44
2023-03-26T17:51:03.289Z,98634.72
2023-03-26T17:54:15.315Z,98611.34
2023-03-26T17:57:25.927Z,98606.25
2023-03-26T18:00:32.955Z,98644.34
2023-03-26T18:03:40.838Z,98636.56
2023-03-26T18:07:05.307Z,98619.56
2023-03-26T18:10:25.204Z,98624.91
2023-03-26T18:14:02.947Z,98665.91
2023-03-26T18:17:18.538Z,98633.09
2023-03-26T18:20:27.177Z,98616.50
2023-03-26T18:23:37.293Z,98598.66
2023-03-26T18:26:44.073Z,98639.03
2023-03-26T18:30:03.048Z,98635.56
2023-03-26T18:33:14.263Z,98639.47
2023-03-26T18:36:20.267Z,98607.69
2023-03-26T18:39:24.853Z,98620.19
2023-03-26T18:42:31.345Z,98631.25
2023-03-26T18:45:43.694Z,98616.91
2023-03-26T18:48:48.482Z,98621.03
2023-03-26T18:51:57.500Z,98586.19
2023-03-26T18:55:03.291Z,98620.19
2023-03-26T18:58:22.468Z,98605.44
2023-03-26T19:01:34.252Z,98569.78
2023-03-26T19:04:38.716Z,98586.78
2023-03-26T19:07:46.596Z,98579.81
2023-03-26T19:10:50.943Z,98590.47
2023-03-26T19:14:04.140Z,98577.78
2023-03-26T19:17:09.544Z,98570.41
2023-03-26T19:20:18.950Z,98548.72
2023-03-26T19:23:27.229Z,98562.25
2023-03-26T19:26:30.942Z,98564.47
2023-03-26T19:29:36.348Z,98546.06
2023-03-26T19:32:41.217Z,98543.41
2023-03-26T19:35:47.339Z,98533.75
2023-03-26T19:38:59.825Z,98537.66
2023-03-26T19:42:05.252Z,98529.06
2023-03-26T19:45:19.167Z,98523.31
2023-03-26T19:48:45.661Z,98514.13
2023-03-26T19:52:12.165Z,98508.78
2023-03-26T19:55:23.155Z,98507.75
2023-03-26T19:58:28.303Z,98482.59
2023-03-26T20:01:32.343Z,98479.47
2023-03-26T20:04:37.259Z,98507.75
2023-03-26T20:07:40.383Z,98497.47
2023-03-26T20:10:43.954Z,98482.69
2023-03-26T20:13:47.311Z,98490.44
2023-03-26T20:16:50.301Z,98493.69
2023-03-26T20:19:54.479Z,98480.63
2023-03-26T20:22:57.465Z,98476.34
2023-03-26T20:26:06.774Z,98455.66
2023-03-26T20:29:10.590Z,98459.31
2023-03-26T20:32:19.983Z,98459.53
2023-03-26T20:35:36.231Z,98447.69
2023-03-26T20:38:40.384Z,98453.81
2023-03-26T20:41:46.463Z,98420.22
2023-03-26T20:44:51.636Z,98432.03
2023-03-26T20:48:17.144Z,98426.28
2023-03-26T20:51:21.486Z,98406.91
2023-03-26T20:54:25.818Z,98359.44
2023-03-26T20:57:28.080Z,98371.69
2023-03-26T21:00:32.808Z,98403.53
2023-03-26T21:03:34.845Z,98413.16
2023-03-26T21:06:38.328Z,98399.44
2023-03-26T21:09:41.200Z,98398.03
2023-03-26T21:12:47.883Z,98399.31
2023-03-26T21:15:50.443Z,98459.88
2023-03-26T21:18:52.960Z,98447.78
2023-03-26T21:22:03.553Z,98461.09
2023-03-26T21:25:17.536Z,98466.81
2023-03-26T21:28:39.815Z,98470.00
2023-03-26T21:31:44.589Z,98460.06
2023-03-26T21:34:57.519Z,98462.59
2023-03-26T21:38:04.596Z,98453.88
2023-03-26T21:41:07.790Z,98448.25
2023-03-26T21:44:09.944Z,98434.88
2023-03-26T21:47:12.673Z,98438.41
2023-03-26T21:50:17.620Z,98433.88
2023-03-26T21:53:22.645Z,98439.19
2023-03-26T21:56:40.786Z,98419.09
2023-03-26T21:59:49.870Z,98432.81
2023-03-26T22:03:04.005Z,98441.19
2023-03-26T22:06:13.601Z,98447.13
2023-03-26T22:09:26.295Z,98447.84
2023-03-26T22:12:28.678Z,98453.13
2023-03-26T22:15:31.295Z,98455.94
2023-03-26T22:18:33.665Z,98450.16
2023-03-26T22:21:35.967Z,98417.75
2023-03-26T22:24:39.197Z,98444.59
2023-03-26T22:27:44.163Z,98431.00
2023-03-26T22:30:46.819Z,98429.22
2023-03-26T22:33:49.198Z,98424.56
2023-03-26T22:36:52.512Z,98413.72
2023-03-26T22:39:56.186Z,98418.22
2023-03-26T22:42:58.067Z,98415.94
2023-03-26T22:45:59.953Z,98413.84
2023-03-26T22:49:01.922Z,98405.84
2023-03-26T22:52:04.113Z,98407.56
2023-03-26T22:55:09.000Z,98386.66
2023-03-26T22:58:10.833Z,98392.03
2023-03-26T23:01:16.870Z,98382.72
2023-03-26T23:04:31.540Z,98386.47
2023-03-26T23:07:34.172Z,98384.66
2023-03-26T23:10:37.446Z,98369.25
2023-03-26T23:13:39.831Z,98356.41
2023-03-26T23:16:42.403Z,98364.97
2023-03-26T23:19:44.599Z,98354.56
2023-03-26T23:22:46.518Z,98364.59
2023-03-26T23:25:50.129Z,98355.66
2023-03-26T23:28:52.010Z,98353.13
2023-03-26T23:31:54.687Z,98337.94
2023-03-26T23:34:56.666Z,98331.25
2023-03-26T23:38:02.203Z,98344.16
2023-03-26T23:41:06.871Z,98331.19
2023-03-26T23:44:13.652Z,98314.78
2023-03-26T23:47:16.777Z,98309.88
2023-03-26T23:50:18.764Z,98327.63
2023-03-26T23:53:22.606Z,98317.81
2023-03-26T23:56:27.828Z,98311.00
2023-03-26T23:59:29.749Z,98319.50
